Time;durP1;ratioP1;P1;durP2;ratioP2;P2;SDS_P1;SDS_P2;PMS_P1;PMS_P2;Temp;Humidity;BMP_temperature;BMP_pressure;BME280_temperature;BME280_humidity;BME280_pressure;Samples;Min_cycle;Max_cycle;Signal;HPM_P1;HPM_P2
2022/04/09 00:02:04;;;;;;;;;;;;;;;17.69;43.98;99883.28;5014262;28;845;-61
2022/04/09 00:04:29;;;;;;;;;;;;;;;17.58;44.27;99866.16;5015679;28;811;-61
2022/04/09 00:06:55;;;;;;;;;;;;;;;17.67;44.15;99869.00;5016043;28;1085;-61
2022/04/09 00:09:20;;;;;;;;;;;;;;;17.65;44.13;99874.00;5008676;28;865;-61
2022/04/09 00:11:45;;;;;;;;;;;;;;;17.71;44.13;99865.38;4996562;28;794;-62
2022/04/09 00:14:11;;;;;;;;;;;;;;;17.68;44.14;99865.94;5003364;28;731;-62
2022/04/09 00:16:38;;;;;;;;;;;;;;;17.67;44.14;99860.75;5015779;28;895;-61
2022/04/09 00:19:04;;;;;;;;;;;;;;;17.67;44.25;99869.84;5015590;28;1917;-62
2022/04/09 00:21:30;;;;;;;;;;;;;;;17.69;44.03;99873.09;5015909;28;813;-61
2022/04/09 00:23:55;;;;;;;;;;;;;;;17.63;43.96;99852.31;5011774;28;825;-62
2022/04/09 00:26:20;;;;;;;;;;;;;;;17.65;44.26;99865.75;5001448;28;842;-61
2022/04/09 00:28:46;;;;;;;;;;;;;;;17.60;44.03;99856.50;5015734;28;755;-61
2022/04/09 00:31:12;;;;;;;;;;;;;;;17.58;43.75;99855.97;5015431;28;762;-62
2022/04/09 00:33:37;;;;;;;;;;;;;;;17.62;43.88;99851.50;5015023;28;750;-63
2022/04/09 00:36:03;;;;;;;;;;;;;;;17.65;43.73;99844.56;5015318;28;788;-63
2022/04/09 00:38:29;;;;;;;;;;;;;;;17.63;44.04;99844.06;4995259;28;2332;-62
2022/04/09 00:40:55;;;;;;;;;;;;;;;17.64;43.96;99845.69;4986800;28;2251;-63
2022/04/09 00:43:21;;;;;;;;;;;;;;;17.62;43.95;99839.69;4998322;28;1010;-62
2022/04/09 00:45:48;;;;;;;;;;;;;;;17.51;43.89;99828.06;4996290;28;903;-62
2022/04/09 00:48:13;;;;;;;;;;;;;;;17.50;43.84;99825.63;4995993;28;802;-62
2022/04/09 00:50:39;;;;;;;;;;;;;;;17.53;43.69;99823.09;4978518;28;1136;-61
2022/04/09 00:53:05;;;;;;;;;;;;;;;17.54;43.80;99834.88;5011969;28;842;-62
2022/04/09 00:58:22;;;;;;;;;;;;;;;17.49;43.97;99837.72;4959248;28;1977;-60
2022/04/09 01:00:47;;;;;;;;;;;;;;;17.52;43.63;99850.88;5001123;28;860;-61
2022/04/09 01:03:18;;;;;;;;;;;;;;;17.50;43.90;99851.19;5018272;28;830;-60
2022/04/09 01:05:44;;;;;;;;;;;;;;;17.52;43.47;99843.44;5002728;28;790;-60
2022/04/09 01:08:09;;;;;;;;;;;;;;;17.51;43.64;99835.50;4999753;28;759;-61
2022/04/09 01:10:35;;;;;;;;;;;;;;;17.50;43.63;99837.44;4985716;28;780;-60
2022/04/09 01:13:01;;;;;;;;;;;;;;;17.56;43.69;99846.41;4999763;28;810;-61
2022/04/09 01:15:26;;;;;;;;;;;;;;;17.58;43.74;99833.16;4982099;28;1225;-61
2022/04/09 01:17:52;;;;;;;;;;;;;;;17.55;43.55;99828.28;4999093;28;1973;-61
2022/04/09 01:20:18;;;;;;;;;;;;;;;17.56;43.78;99825.22;4997751;28;1364;-60
2022/04/09 01:22:45;;;;;;;;;;;;;;;17.65;43.56;99832.78;4981571;28;1121;-60
2022/04/09 01:25:11;;;;;;;;;;;;;;;17.64;43.92;99826.44;4991543;28;1260;-61
2022/04/09 01:27:37;;;;;;;;;;;;;;;17.66;43.75;99823.41;5000255;28;1392;-60
2022/04/09 01:30:03;;;;;;;;;;;;;;;17.67;43.86;99814.84;5014320;28;862;-60
2022/04/09 01:32:29;;;;;;;;;;;;;;;17.73;44.05;99815.56;5000492;28;1211;-60
2022/04/09 01:34:54;;;;;;;;;;;;;;;17.76;44.24;99813.00;5018452;28;826;-60
2022/04/09 01:37:20;;;;;;;;;;;;;;;17.77;44.44;99820.16;5018035;28;887;-60
2022/04/09 01:39:45;;;;;;;;;;;;;;;17.83;44.35;99817.31;5010125;28;1972;-61
2022/04/09 01:42:11;;;;;;;;;;;;;;;17.83;44.53;99809.88;4998211;28;1180;-60
2022/04/09 01:44:40;;;;;;;;;;;;;;;17.80;44.56;99804.97;4996104;28;1416;-61
2022/04/09 01:47:05;;;;;;;;;;;;;;;17.85;44.66;99806.81;5000173;28;1310;-60
2022/04/09 01:49:31;;;;;;;;;;;;;;;17.84;44.59;99796.91;5017884;28;869;-60
2022/04/09 01:51:56;;;;;;;;;;;;;;;17.91;44.55;99805.63;5010189;28;855;-63
2022/04/09 01:54:22;;;;;;;;;;;;;;;17.87;44.51;99793.56;4985116;28;1344;-60
2022/04/09 01:56:47;;;;;;;;;;;;;;;17.89;44.56;99783.06;4993988;28;1275;-61
2022/04/09 01:59:13;;;;;;;;;;;;;;;17.73;44.07;99788.88;4999974;28;1979;-61
2022/04/09 02:01:39;;;;;;;;;;;;;;;17.52;43.40;99791.22;5000115;28;1110;-61
2022/04/09 02:04:04;;;;;;;;;;;;;;;17.31;42.56;99782.53;4999560;28;773;-61
2022/04/09 02:06:32;;;;;;;;;;;;;;;17.21;41.75;99791.78;4973986;28;1356;-61
2022/04/09 02:08:57;;;;;;;;;;;;;;;17.05;41.16;99799.44;4993681;28;1371;-61
2022/04/09 02:11:23;;;;;;;;;;;;;;;16.89;40.74;99784.38;4998230;28;865;-61
2022/04/09 02:13:50;;;;;;;;;;;;;;;16.83;40.51;99788.25;4998649;28;793;-61
2022/04/09 02:16:16;;;;;;;;;;;;;;;16.71;39.94;99784.06;4980369;28;1515;-61
2022/04/09 02:18:43;;;;;;;;;;;;;;;16.67;39.89;99798.69;4998090;28;1914;-61
2022/04/09 02:21:09;;;;;;;;;;;;;;;16.75;40.56;99784.28;5003412;28;806;-61
2022/04/09 02:23:37;;;;;;;;;;;;;;;16.93;41.45;99794.44;4998818;28;1116;-61
2022/04/09 02:26:03;;;;;;;;;;;;;;;17.05;42.45;99791.22;5004181;28;1174;-60
2022/04/09 02:28:28;;;;;;;;;;;;;;;17.20;43.22;99794.81;4980627;28;1089;-60
2022/04/09 02:30:54;;;;;;;;;;;;;;;17.34;43.73;99790.16;4980834;28;1350;-61
2022/04/09 02:33:29;;;;;;;;;;;;;;;17.43;44.38;99793.84;4980217;28;1300;-60
2022/04/09 02:35:54;;;;;;;;;;;;;;;17.55;44.48;99784.31;5016083;28;843;-60
2022/04/09 02:38:19;;;;;;;;;;;;;;;17.70;44.68;99797.75;4998348;28;1906;-61
2022/04/09 02:40:45;;;;;;;;;;;;;;;17.68;44.97;99799.97;4986431;28;1093;-61
2022/04/09 02:43:11;;;;;;;;;;;;;;;17.85;44.73;99806.81;4980771;28;1115;-61
2022/04/09 02:45:37;;;;;;;;;;;;;;;17.85;45.06;99804.88;4980352;28;1239;-61
2022/04/09 02:48:05;;;;;;;;;;;;;;;17.89;45.03;99788.56;4981974;28;1337;-60
2022/04/09 02:50:33;;;;;;;;;;;;;;;17.89;45.27;99789.41;4979055;28;1122;-61
2022/04/09 02:52:58;;;;;;;;;;;;;;;17.91;45.61;99789.13;4995207;28;874;-62
2022/04/09 02:55:25;;;;;;;;;;;;;;;17.84;45.18;99792.25;4992209;28;1277;-62
2022/04/09 02:57:51;;;;;;;;;;;;;;;17.70;44.78;99803.25;4977896;28;1910;-62
2022/04/09 03:00:18;;;;;;;;;;;;;;;17.50;43.93;99793.47;4987695;28;1477;-62
2022/04/09 03:02:44;;;;;;;;;;;;;;;17.31;42.76;99779.78;4998703;28;1247;-61
2022/04/09 03:05:22;;;;;;;;;;;;;;;17.07;41.72;99780.75;4978938;28;1277;-62
2022/04/09 03:07:47;;;;;;;;;;;;;;;16.94;41.21;99798.00;4996870;28;1248;-63
2022/04/09 03:10:13;;;;;;;;;;;;;;;16.77;40.32;99802.09;5007140;28;849;-63
2022/04/09 03:12:42;;;;;;;;;;;;;;;16.71;39.84;99800.53;5014357;28;771;-64
2022/04/09 03:15:08;;;;;;;;;;;;;;;16.66;40.04;99791.56;4998604;28;1105;-63
2022/04/09 03:17:33;;;;;;;;;;;;;;;16.72;40.44;99776.66;5016175;28;790;-63
2022/04/09 03:19:58;;;;;;;;;;;;;;;16.90;41.53;99797.78;4998218;28;2000;-64
2022/04/09 03:22:24;;;;;;;;;;;;;;;17.06;42.72;99778.31;4998523;28;1227;-63
2022/04/09 03:24:50;;;;;;;;;;;;;;;17.21;43.48;99783.53;4982851;28;1216;-61
2022/04/09 03:27:15;;;;;;;;;;;;;;;17.35;44.02;99774.47;4996917;28;1299;-62
2022/04/09 03:29:41;;;;;;;;;;;;;;;17.50;44.44;99779.72;4979285;28;1237;-63
2022/04/09 03:32:07;;;;;;;;;;;;;;;17.56;44.82;99781.25;4996637;28;1225;-62
2022/04/09 03:34:36;;;;;;;;;;;;;;;17.63;45.01;99769.84;4979401;28;1323;-61
2022/04/09 03:37:04;;;;;;;;;;;;;;;17.67;45.20;99765.38;4974175;28;1217;-62
2022/04/09 03:39:30;;;;;;;;;;;;;;;17.75;45.18;99781.16;4976645;28;1907;-62
2022/04/09 03:41:56;;;;;;;;;;;;;;;17.82;45.02;99761.47;4987227;28;1250;-62
2022/04/09 03:44:22;;;;;;;;;;;;;;;17.86;45.25;99769.94;4979756;28;1344;-63
2022/04/09 03:46:56;;;;;;;;;;;;;;;17.87;45.11;99760.56;4979594;28;1146;-63
2022/04/09 03:49:21;;;;;;;;;;;;;;;17.92;45.34;99755.81;4978783;28;1275;-61
2022/04/09 03:51:48;;;;;;;;;;;;;;;17.97;45.10;99759.59;4994121;28;1314;-64
2022/04/09 03:54:16;;;;;;;;;;;;;;;17.93;45.10;99748.38;4992340;28;1166;-61
2022/04/09 03:56:43;;;;;;;;;;;;;;;17.93;45.16;99751.13;4978713;28;1136;-60
2022/04/09 03:59:10;;;;;;;;;;;;;;;17.96;45.30;99742.25;4979576;28;1967;-64
2022/04/09 04:01:36;;;;;;;;;;;;;;;18.01;45.21;99744.91;4979002;28;1181;-61
2022/04/09 04:04:07;;;;;;;;;;;;;;;18.03;45.18;99750.09;4993695;28;1104;-63
2022/04/09 04:06:33;;;;;;;;;;;;;;;17.94;44.92;99747.25;4998207;28;1294;-64
2022/04/09 04:09:02;;;;;;;;;;;;;;;17.69;44.14;99737.56;4996087;28;1168;-65
2022/04/09 04:11:27;;;;;;;;;;;;;;;17.42;43.03;99745.50;5016093;28;814;-63
2022/04/09 04:13:53;;;;;;;;;;;;;;;17.33;42.33;99749.25;4996343;28;1107;-64
2022/04/09 04:16:21;;;;;;;;;;;;;;;17.14;41.24;99746.56;4986444;28;1337;-65
2022/04/09 04:18:46;;;;;;;;;;;;;;;17.02;40.90;99745.13;4997557;28;1906;-65
2022/04/09 04:21:14;;;;;;;;;;;;;;;16.94;40.50;99743.06;4998478;28;1128;-64
2022/04/09 04:23:43;;;;;;;;;;;;;;;16.85;40.09;99747.59;4995555;28;803;-64
2022/04/09 04:26:16;;;;;;;;;;;;;;;16.75;40.05;99754.88;4974670;28;1121;-64
2022/04/09 04:28:42;;;;;;;;;;;;;;;16.69;40.30;99749.78;4980926;28;1345;-64
2022/04/09 04:31:08;;;;;;;;;;;;;;;16.75;41.13;99757.63;4982540;28;1353;-65
2022/04/09 04:33:36;;;;;;;;;;;;;;;16.94;42.32;99759.53;4983267;28;1139;-65
2022/04/09 04:36:02;;;;;;;;;;;;;;;17.08;43.18;99765.06;4982414;28;1200;-65
2022/04/09 04:38:32;;;;;;;;;;;;;;;17.14;43.97;99757.56;4982483;28;1922;-65
2022/04/09 04:41:00;;;;;;;;;;;;;;;17.19;44.53;99755.53;4987042;28;1152;-65
2022/04/09 04:43:27;;;;;;;;;;;;;;;17.34;44.75;99757.19;4982810;28;1249;-65
2022/04/09 04:45:54;;;;;;;;;;;;;;;17.42;45.04;99759.25;4982495;28;1264;-65
2022/04/09 04:48:22;;;;;;;;;;;;;;;17.50;45.03;99765.16;5000387;28;925;-65
2022/04/09 04:50:50;;;;;;;;;;;;;;;17.48;45.37;99753.66;4982448;28;1113;-65
2022/04/09 04:53:15;;;;;;;;;;;;;;;17.48;45.56;99750.91;4981817;28;1303;-65
2022/04/09 04:55:46;;;;;;;;;;;;;;;17.54;45.70;99761.47;4998952;28;1283;-65
2022/04/09 04:58:13;;;;;;;;;;;;;;;17.58;45.61;99758.94;5001099;28;1989;-64
2022/04/09 05:00:44;;;;;;;;;;;;;;;17.56;45.71;99761.19;4985466;28;1092;-65
2022/04/09 05:03:15;;;;;;;;;;;;;;;17.64;45.68;99760.47;5001262;28;1300;-65
2022/04/09 05:06:09;;;;;;;;;;;;;;;17.70;45.49;99767.50;5003274;28;1411;-65
2022/04/09 05:08:38;;;;;;;;;;;;;;;17.72;45.66;99779.00;5017696;28;763;-65
2022/04/09 05:11:05;;;;;;;;;;;;;;;17.74;46.12;99776.78;4988240;28;1240;-65
2022/04/09 05:13:34;;;;;;;;;;;;;;;17.75;45.92;99770.16;4982176;28;1295;-65
2022/04/09 05:16:00;;;;;;;;;;;;;;;17.77;46.08;99759.66;4981894;28;1625;-65
2022/04/09 05:18:27;;;;;;;;;;;;;;;17.80;46.30;99774.72;4982047;28;1918;-65
2022/04/09 05:20:54;;;;;;;;;;;;;;;17.78;46.15;99771.47;4981686;28;1280;-65
2022/04/09 05:23:20;;;;;;;;;;;;;;;17.81;46.07;99768.13;4982001;28;1133;-65
2022/04/09 05:25:46;;;;;;;;;;;;;;;17.79;46.19;99773.94;4995709;28;1273;-64
2022/04/09 05:28:13;;;;;;;;;;;;;;;17.86;46.03;99768.00;5000617;28;1154;-65
2022/04/09 05:30:44;;;;;;;;;;;;;;;17.84;46.29;99752.91;4985330;28;1209;-65
2022/04/09 05:33:10;;;;;;;;;;;;;;;17.89;46.04;99758.31;4992994;28;1372;-65
2022/04/09 05:35:38;;;;;;;;;;;;;;;17.93;45.84;99751.91;5000948;28;1007;-65
2022/04/09 05:38:04;;;;;;;;;;;;;;;17.92;46.15;99753.06;4993285;28;1927;-65
2022/04/09 05:40:33;;;;;;;;;;;;;;;17.82;46.36;99741.44;4996744;28;1108;-65
2022/04/09 05:43:06;;;;;;;;;;;;;;;17.85;45.92;99743.56;5000863;28;1426;-64
2022/04/09 05:45:33;;;;;;;;;;;;;;;17.86;45.88;99742.44;4990564;28;825;-64
2022/04/09 05:47:58;;;;;;;;;;;;;;;17.82;45.62;99742.22;4981592;28;1093;-64
2022/04/09 05:50:34;;;;;;;;;;;;;;;17.74;45.48;99741.03;4981545;28;1087;-65
2022/04/09 05:53:00;;;;;;;;;;;;;;;17.77;45.51;99740.41;4981264;28;1953;-65
2022/04/09 05:55:26;;;;;;;;;;;;;;;17.78;45.47;99744.78;5011387;28;808;-65
2022/04/09 05:57:54;;;;;;;;;;;;;;;17.84;45.20;99741.91;4978293;28;1905;-65
2022/04/09 06:00:20;;;;;;;;;;;;;;;17.78;45.29;99731.03;4974887;28;1334;-65
2022/04/09 06:02:58;;;;;;;;;;;;;;;17.79;45.41;99721.69;4976442;28;1188;-65
2022/04/09 06:05:29;;;;;;;;;;;;;;;17.77;45.37;99732.16;4981634;28;1117;-62
2022/04/09 06:07:57;;;;;;;;;;;;;;;17.73;45.28;99739.38;4980887;28;1363;-64
2022/04/09 06:10:22;;;;;;;;;;;;;;;17.68;45.21;99731.25;4988071;28;1355;-62
2022/04/09 06:12:48;;;;;;;;;;;;;;;17.75;44.87;99734.41;4999902;28;1158;-64
2022/04/09 06:15:19;;;;;;;;;;;;;;;17.71;45.32;99738.91;4999552;28;1303;-64
2022/04/09 06:17:49;;;;;;;;;;;;;;;17.70;44.99;99731.75;4999966;28;1279;-63
2022/04/09 06:20:16;;;;;;;;;;;;;;;17.66;44.98;99736.25;5017275;28;1894;-63
2022/04/09 06:22:43;;;;;;;;;;;;;;;17.69;45.17;99743.06;4996357;28;1261;-62
2022/04/09 06:25:09;;;;;;;;;;;;;;;17.68;44.78;99749.69;4996842;28;1144;-64
2022/04/09 06:27:39;;;;;;;;;;;;;;;17.63;45.10;99742.34;4999707;28;1408;-64
2022/04/09 06:30:06;;;;;;;;;;;;;;;17.64;45.00;99743.97;4999191;28;1343;-64
2022/04/09 06:32:33;;;;;;;;;;;;;;;17.64;44.87;99740.41;4999219;28;1223;-63
2022/04/09 06:34:59;;;;;;;;;;;;;;;17.64;45.06;99743.97;4998027;28;1330;-62
2022/04/09 06:37:26;;;;;;;;;;;;;;;17.67;44.93;99750.78;4985002;28;1248;-64
2022/04/09 06:39:52;;;;;;;;;;;;;;;17.66;44.97;99752.75;4989824;28;1972;-64
2022/04/09 06:42:18;;;;;;;;;;;;;;;17.63;44.71;99742.34;4999095;28;1141;-64
2022/04/09 06:45:22;;;;;;;;;;;;;;;17.62;44.79;99747.03;4956083;29;1279;-64
2022/04/09 06:48:22;;;;;;;;;;;;;;;17.58;44.96;99742.44;4931842;29;1333;-63
2022/04/09 06:51:07;;;;;;;;;;;;;;;17.53;44.84;99737.03;4988710;28;1307;-64
2022/04/09 06:53:33;;;;;;;;;;;;;;;17.61;44.41;99745.41;4998564;28;1331;-63
2022/04/09 06:55:59;;;;;;;;;;;;;;;17.57;44.56;99738.91;4998099;28;778;-63
2022/04/09 06:58:25;;;;;;;;;;;;;;;17.60;44.64;99742.97;4979933;28;1910;-64
2022/04/09 07:00:50;;;;;;;;;;;;;;;17.63;44.57;99736.88;4978251;28;1242;-63
2022/04/09 07:03:16;;;;;;;;;;;;;;;17.55;44.64;99729.31;4979824;28;1319;-63
2022/04/09 07:05:41;;;;;;;;;;;;;;;17.62;44.74;99736.03;4997021;28;1228;-63
2022/04/09 07:08:08;;;;;;;;;;;;;;;17.56;44.76;99733.72;5007702;28;1196;-64
2022/04/09 07:10:33;;;;;;;;;;;;;;;17.62;44.90;99732.47;4999606;28;928;-64
2022/04/09 07:12:59;;;;;;;;;;;;;;;17.66;44.54;99730.75;4996599;28;1284;-62
2022/04/09 07:15:24;;;;;;;;;;;;;;;17.60;44.59;99731.97;4997085;28;894;-62
2022/04/09 07:17:50;;;;;;;;;;;;;;;17.64;44.57;99727.47;4993890;28;1098;-62
2022/04/09 07:20:16;;;;;;;;;;;;;;;17.70;44.60;99726.25;4996975;28;1910;-64
2022/04/09 07:22:41;;;;;;;;;;;;;;;17.73;44.62;99720.16;4997446;28;802;-65
2022/04/09 07:25:07;;;;;;;;;;;;;;;17.72;44.80;99718.50;4981154;28;902;-62
2022/04/09 07:27:42;;;;;;;;;;;;;;;17.61;44.67;99715.19;4996886;28;900;-62
2022/04/09 07:30:09;;;;;;;;;;;;;;;17.48;44.62;99718.72;4995246;28;1062;-65
2022/04/09 07:32:35;;;;;;;;;;;;;;;17.55;44.77;99715.59;4993972;28;1260;-65
2022/04/09 07:35:00;;;;;;;;;;;;;;;17.55;44.49;99723.81;4997154;28;917;-65
2022/04/09 07:37:26;;;;;;;;;;;;;;;17.47;44.23;99717.09;4996955;28;799;-65
2022/04/09 07:39:52;;;;;;;;;;;;;;;17.52;43.99;99724.44;5004831;28;1946;-65
2022/04/09 07:42:17;;;;;;;;;;;;;;;17.40;43.95;99720.28;5015633;28;746;-64
2022/04/09 07:44:43;;;;;;;;;;;;;;;17.40;43.82;99711.19;5016266;28;794;-65
2022/04/09 07:47:08;;;;;;;;;;;;;;;17.37;43.69;99709.88;5015904;28;903;-65
2022/04/09 07:49:34;;;;;;;;;;;;;;;17.36;43.66;99708.25;5016128;28;801;-65
2022/04/09 07:51:59;;;;;;;;;;;;;;;17.30;43.62;99697.66;4994128;28;870;-65
2022/04/09 07:54:25;;;;;;;;;;;;;;;17.31;43.68;99700.09;4996781;28;854;-65
2022/04/09 07:56:50;;;;;;;;;;;;;;;17.27;43.51;99691.66;4996911;28;815;-65
2022/04/09 07:59:16;;;;;;;;;;;;;;;17.26;43.37;99686.47;4996799;28;1907;-65
2022/04/09 08:01:41;;;;;;;;;;;;;;;17.23;43.35;99693.38;4996988;28;880;-65
2022/04/09 08:04:06;;;;;;;;;;;;;;;17.24;43.21;99692.25;4997846;28;1193;-64
2022/04/09 08:06:32;;;;;;;;;;;;;;;17.22;43.48;99682.69;5000356;28;1162;-64
2022/04/09 08:08:58;;;;;;;;;;;;;;;17.22;43.23;99679.94;4999615;28;886;-63
2022/04/09 08:11:23;;;;;;;;;;;;;;;17.21;43.13;99681.09;5018314;28;775;-64
2022/04/09 08:13:49;;;;;;;;;;;;;;;17.20;43.40;99682.19;5019120;28;906;-64
2022/04/09 08:16:14;;;;;;;;;;;;;;;17.13;43.29;99681.78;5019380;28;803;-64
2022/04/09 08:18:40;;;;;;;;;;;;;;;17.19;43.22;99688.81;5004476;28;1930;-65
2022/04/09 08:21:06;;;;;;;;;;;;;;;17.16;43.58;99678.44;5000529;28;1272;-64
2022/04/09 08:23:32;;;;;;;;;;;;;;;17.14;43.46;99669.66;5000549;28;862;-66
2022/04/09 08:25:57;;;;;;;;;;;;;;;17.18;43.39;99688.00;5016219;28;799;-64
2022/04/09 08:28:24;;;;;;;;;;;;;;;17.15;43.58;99666.59;5017027;28;1180;-66
2022/04/09 08:30:49;;;;;;;;;;;;;;;17.17;43.72;99674.56;5000115;28;1197;-65
2022/04/09 08:33:15;;;;;;;;;;;;;;;17.26;43.71;99680.97;5000496;28;1377;-65
2022/04/09 08:35:43;;;;;;;;;;;;;;;17.23;43.79;99679.63;5000215;28;1156;-65
2022/04/09 08:38:08;;;;;;;;;;;;;;;17.29;43.64;99666.63;5000283;28;1903;-65
2022/04/09 08:40:35;;;;;;;;;;;;;;;17.26;43.92;99667.22;5000192;28;823;-65
2022/04/09 08:43:01;;;;;;;;;;;;;;;17.30;44.02;99670.19;4985205;28;1519;-65
2022/04/09 08:45:26;;;;;;;;;;;;;;;17.22;43.94;99667.03;5000480;28;806;-65
2022/04/09 08:47:52;;;;;;;;;;;;;;;17.25;44.07;99665.59;5000496;28;798;-65
2022/04/09 08:50:17;;;;;;;;;;;;;;;17.25;44.00;99671.09;4982516;28;798;-65
2022/04/09 08:52:43;;;;;;;;;;;;;;;17.28;44.13;99686.97;4982674;28;859;-65
2022/04/09 08:55:09;;;;;;;;;;;;;;;17.25;43.84;99671.09;5004758;28;860;-65
2022/04/09 08:57:34;;;;;;;;;;;;;;;17.21;43.81;99659.91;5018784;28;923;-63
2022/04/09 09:00:04;;;;;;;;;;;;;;;17.24;43.90;99662.03;5001576;28;1910;-65
2022/04/09 09:02:31;;;;;;;;;;;;;;;17.28;43.95;99665.00;4999598;28;1248;-66
2022/04/09 09:04:56;;;;;;;;;;;;;;;17.21;43.80;99661.84;4998520;28;1205;-66
2022/04/09 09:07:22;;;;;;;;;;;;;;;17.28;43.61;99662.25;4998598;28;1110;-65
2022/04/09 09:09:48;;;;;;;;;;;;;;;17.30;43.82;99668.25;5004462;28;1137;-64
2022/04/09 09:12:25;;;;;;;;;;;;;;;17.30;43.96;99661.94;5018020;28;840;-64
2022/04/09 09:14:51;;;;;;;;;;;;;;;17.28;44.14;99662.25;5018062;28;814;-64
2022/04/09 09:17:24;;;;;;;;;;;;;;;17.28;44.31;99659.50;5018998;28;881;-66
2022/04/09 09:19:50;;;;;;;;;;;;;;;17.30;44.00;99657.25;5000740;28;1910;-66
2022/04/09 09:22:15;;;;;;;;;;;;;;;17.34;44.01;99652.78;5004184;28;893;-66
2022/04/09 09:24:41;;;;;;;;;;;;;;;17.35;43.84;99642.59;5005703;28;843;-66
2022/04/09 09:27:06;;;;;;;;;;;;;;;17.37;43.90;99652.16;5018049;28;843;-66
2022/04/09 09:29:33;;;;;;;;;;;;;;;17.39;43.89;99649.94;4993100;28;841;-66
2022/04/09 09:31:59;;;;;;;;;;;;;;;17.31;44.29;99639.66;4999666;28;880;-66
2022/04/09 09:34:24;;;;;;;;;;;;;;;17.30;44.17;99640.78;4998595;28;855;-66
2022/04/09 09:36:50;;;;;;;;;;;;;;;17.28;44.03;99640.28;4999227;28;874;-66
2022/04/09 09:39:20;;;;;;;;;;;;;;;17.31;43.86;99638.84;4998823;28;1988;-65
2022/04/09 09:41:52;;;;;;;;;;;;;;;17.38;43.95;99640.06;4998777;28;850;-66
2022/04/09 09:44:18;;;;;;;;;;;;;;;17.45;44.01;99653.41;4992421;28;874;-66
2022/04/09 09:46:45;;;;;;;;;;;;;;;17.39;44.13;99641.69;4999036;28;873;-66
2022/04/09 09:49:10;;;;;;;;;;;;;;;17.31;43.90;99636.09;4998645;28;798;-66
2022/04/09 09:51:36;;;;;;;;;;;;;;;17.34;43.88;99636.28;4981795;28;774;-67
2022/04/09 09:54:08;;;;;;;;;;;;;;;17.33;44.07;99631.09;4998492;28;920;-67
2022/04/09 09:56:37;;;;;;;;;;;;;;;17.32;43.99;99630.31;5017131;28;823;-66
2022/04/09 09:59:05;;;;;;;;;;;;;;;17.35;43.92;99626.09;5013891;28;1976;-66
2022/04/09 10:01:31;;;;;;;;;;;;;;;17.34;43.74;99617.06;4999298;28;931;-66
2022/04/09 10:03:56;;;;;;;;;;;;;;;17.39;43.62;99622.47;4981276;28;803;-66
2022/04/09 10:06:22;;;;;;;;;;;;;;;17.36;43.68;99616.75;4981401;28;860;-66
2022/04/09 10:08:47;;;;;;;;;;;;;;;17.38;43.78;99614.53;4998629;28;786;-64
2022/04/09 10:11:14;;;;;;;;;;;;;;;17.34;43.83;99608.00;5016567;28;1085;-65
2022/04/09 10:13:41;;;;;;;;;;;;;;;17.41;43.60;99616.66;4981472;28;882;-65
2022/04/09 10:16:08;;;;;;;;;;;;;;;17.39;43.69;99607.88;4998454;28;851;-65
2022/04/09 10:18:33;;;;;;;;;;;;;;;17.38;43.73;99606.28;4980947;28;1979;-65
2022/04/09 10:21:00;;;;;;;;;;;;;;;17.42;43.82;99610.03;4980952;28;816;-65
2022/04/09 10:23:27;;;;;;;;;;;;;;;17.39;43.79;99600.47;4980823;28;853;-65
2022/04/09 10:25:52;;;;;;;;;;;;;;;17.46;43.77;99600.06;4992493;28;1085;-65
2022/04/09 10:28:31;;;;;;;;;;;;;;;17.42;43.92;99601.78;5016976;28;859;-65
2022/04/09 10:30:57;;;;;;;;;;;;;;;17.47;43.80;99601.66;5017273;28;727;-65
2022/04/09 10:33:23;;;;;;;;;;;;;;;17.52;43.98;99609.81;5016835;28;838;-66
2022/04/09 10:35:48;;;;;;;;;;;;;;;17.52;44.20;99595.25;4999051;28;856;-66
2022/04/09 10:38:18;;;;;;;;;;;;;;;17.52;43.92;99589.78;5009882;28;1971;-65
2022/04/09 10:40:43;;;;;;;;;;;;;;;17.52;43.90;99598.00;5009969;28;1379;-66
2022/04/09 10:43:09;;;;;;;;;;;;;;;17.44;44.04;99597.59;5016926;28;777;-66
2022/04/09 10:45:55;;;;;;;;;;;;;;;17.49;43.92;99582.94;5016695;28;962;-66
2022/04/09 10:48:27;;;;;;;;;;;;;;;17.51;43.85;99585.38;5005758;28;1592;-66
2022/04/09 10:50:58;;;;;;;;;;;;;;;17.49;43.96;99584.88;5006274;28;1417;-66
2022/04/09 10:53:27;;;;;;;;;;;;;;;17.47;44.00;99585.19;4998107;28;1022;-66
2022/04/09 10:56:11;;;;;;;;;;;;;;;17.54;44.01;99590.25;4996471;28;815;-65
2022/04/09 10:58:55;;;;;;;;;;;;;;;17.49;43.91;99582.13;5016942;28;1915;-65
2022/04/09 11:01:40;;;;;;;;;;;;;;;17.47;44.13;99578.88;5016738;28;782;-65
2022/04/09 11:04:24;;;;;;;;;;;;;;;17.48;43.90;99575.81;5002260;28;783;-65
2022/04/09 11:06:59;;;;;;;;;;;;;;;17.53;43.80;99572.97;4997708;28;763;-65
2022/04/09 11:09:25;;;;;;;;;;;;;;;17.51;44.00;99564.19;5001911;28;939;-65
2022/04/09 11:12:01;;;;;;;;;;;;;;;17.49;43.97;99566.47;5016478;28;783;-65
2022/04/09 11:14:26;;;;;;;;;;;;;;;17.51;43.67;99568.91;5016181;28;799;-65
2022/04/09 11:16:52;;;;;;;;;;;;;;;17.45;43.75;99558.00;5013315;28;1047;-66
2022/04/09 11:19:20;;;;;;;;;;;;;;;17.55;43.83;99565.22;5016182;28;1905;-65
2022/04/09 11:21:49;;;;;;;;;;;;;;;17.50;43.75;99550.78;5016346;28;870;-66
2022/04/09 11:24:14;;;;;;;;;;;;;;;17.55;43.60;99548.72;5010471;28;766;-66
2022/04/09 11:26:40;;;;;;;;;;;;;;;17.53;43.80;99555.66;4997163;28;786;-66
2022/04/09 11:29:11;;;;;;;;;;;;;;;17.52;43.97;99548.53;4997186;28;770;-65
2022/04/09 11:31:47;;;;;;;;;;;;;;;17.52;43.75;99557.59;4997019;28;784;-65
2022/04/09 11:34:12;;;;;;;;;;;;;;;17.56;43.73;99550.34;5016143;28;787;-66
2022/04/09 11:36:38;;;;;;;;;;;;;;;17.53;43.88;99544.66;5016121;28;898;-66
2022/04/09 11:39:03;;;;;;;;;;;;;;;17.54;43.87;99541.59;5008754;28;1946;-66
2022/04/09 11:41:29;;;;;;;;;;;;;;;17.55;43.82;99543.22;4996635;28;854;-66
2022/04/09 11:43:55;;;;;;;;;;;;;;;17.51;43.98;99535.91;4997758;28;775;-66
2022/04/09 11:46:21;;;;;;;;;;;;;;;17.52;43.84;99529.31;4996829;28;901;-67
2022/04/09 11:48:58;;;;;;;;;;;;;;;17.57;43.66;99527.25;5007483;28;897;-67
2022/04/09 11:51:23;;;;;;;;;;;;;;;17.55;43.92;99512.19;5015645;28;827;-67
2022/04/09 11:53:49;;;;;;;;;;;;;;;17.53;44.03;99504.25;5010990;28;782;-67
2022/04/09 11:56:14;;;;;;;;;;;;;;;17.56;43.99;99513.81;4997309;28;826;-66
2022/04/09 11:58:39;;;;;;;;;;;;;;;17.56;43.87;99505.56;4979345;28;1902;-66
2022/04/09 12:01:09;;;;;;;;;;;;;;;17.56;43.92;99508.31;4997448;28;751;-66
2022/04/09 12:03:35;;;;;;;;;;;;;;;17.57;44.24;99504.44;4996787;28;879;-65
2022/04/09 12:06:00;;;;;;;;;;;;;;;17.61;44.07;99498.03;4979431;28;1479;-65
2022/04/09 12:08:26;;;;;;;;;;;;;;;17.58;43.89;99503.31;4996620;28;970;-64
2022/04/09 12:10:52;;;;;;;;;;;;;;;17.60;44.06;99492.84;4986368;28;782;-65
2022/04/09 12:13:23;;;;;;;;;;;;;;;17.67;43.75;99501.47;4997042;28;802;-65
2022/04/09 12:15:49;;;;;;;;;;;;;;;17.60;43.97;99492.84;4996992;28;845;-64
2022/04/09 12:18:24;;;;;;;;;;;;;;;17.69;43.99;99504.69;4996504;28;1902;-64
2022/04/09 12:20:49;;;;;;;;;;;;;;;17.59;43.86;99482.97;4996194;28;786;-64
2022/04/09 12:23:15;;;;;;;;;;;;;;;17.55;44.11;99477.25;4996962;28;989;-65
2022/04/09 12:25:42;;;;;;;;;;;;;;;17.53;43.71;99475.94;4983012;28;738;-66
2022/04/09 12:28:23;;;;;;;;;;;;;;;17.54;43.86;99483.88;4996640;28;827;-65
2022/04/09 12:30:49;;;;;;;;;;;;;;;17.54;43.67;99480.31;4992874;28;1075;-66
2022/04/09 12:33:15;;;;;;;;;;;;;;;17.53;43.68;99473.19;4996194;28;1172;-65
2022/04/09 12:35:40;;;;;;;;;;;;;;;17.50;43.65;99463.66;4996393;28;869;-66
2022/04/09 12:38:06;;;;;;;;;;;;;;;17.53;43.82;99464.94;4996133;28;990;-66
2022/04/09 12:40:32;;;;;;;;;;;;;;;17.53;43.71;99462.19;4992583;28;887;-66
2022/04/09 12:42:58;;;;;;;;;;;;;;;17.56;43.67;99461.59;5015149;28;791;-66
2022/04/09 12:45:24;;;;;;;;;;;;;;;17.54;43.62;99455.59;5005613;28;920;-65
2022/04/09 12:47:59;;;;;;;;;;;;;;;17.57;43.59;99455.78;4995977;28;835;-66
2022/04/09 12:50:27;;;;;;;;;;;;;;;17.53;43.49;99452.03;4998571;28;807;-67
2022/04/09 12:52:53;;;;;;;;;;;;;;;17.53;43.85;99446.53;5000104;28;822;-65
2022/04/09 12:55:19;;;;;;;;;;;;;;;17.58;43.31;99445.59;4999562;28;838;-65
2022/04/09 12:57:44;;;;;;;;;;;;;;;17.55;43.69;99438.78;4999405;28;831;-65
2022/04/09 13:00:10;;;;;;;;;;;;;;;17.52;43.53;99447.66;5000153;28;1905;-66
2022/04/09 13:02:36;;;;;;;;;;;;;;;17.55;43.52;99448.97;4999384;28;865;-63
2022/04/09 13:05:04;;;;;;;;;;;;;;;17.53;43.64;99443.78;5000103;28;834;-64
2022/04/09 13:07:30;;;;;;;;;;;;;;;17.52;43.47;99449.59;4999561;28;890;-63